Time;durP1;ratioP1;P1;durP2;ratioP2;P2;SDS_P1;SDS_P2;PMS_P1;PMS_P2;Temp;Humidity;BMP_temperature;BMP_pressure;BME280_temperature;BME280_humidity;BME280_pressure;Samples;Min_cycle;Max_cycle;Signal;HPM_P1;HPM_P2
2024/01/12 00:04:47;;;;;;;2.92;1.70;;;;;;;17.90;28.10;103298.75;16100325;19;129951;-65
2024/01/12 00:10:09;;;;;;;4.90;1.83;;;;;;;17.84;27.97;103292.94;16104165;19;130131;-65
2024/01/12 00:15:31;;;;;;;2.30;1.50;;;;;;;17.79;28.05;103283.41;16115037;19;130835;-64
2024/01/12 00:20:53;;;;;;;2.58;1.60;;;;;;;17.75;28.21;103285.69;16122286;19;130605;-64
2024/01/12 00:26:15;;;;;;;2.35;1.70;;;;;;;17.71;28.04;103284.34;16119789;19;129194;-64
2024/01/12 00:31:37;;;;;;;2.33;1.73;;;;;;;17.65;27.98;103282.28;16121013;19;130892;-63
2024/01/12 00:37:00;;;;;;;3.40;2.38;;;;;;;17.61;28.15;103290.09;16116670;19;129567;-64
2024/01/12 00:42:22;;;;;;;3.80;2.35;;;;;;;17.57;27.78;103304.50;16119635;19;129608;-64
2024/01/12 00:47:44;;;;;;;3.38;1.83;;;;;;;17.52;27.79;103294.78;16120136;19;129879;-64
2024/01/12 00:53:06;;;;;;;3.10;1.75;;;;;;;17.50;28.24;103307.09;16115976;19;130093;-64
2024/01/12 00:58:28;;;;;;;3.80;1.95;;;;;;;17.46;28.04;103300.19;16117089;19;131856;-67
2024/01/12 01:03:50;;;;;;;3.63;2.17;;;;;;;17.43;28.19;103315.25;16119569;19;130054;-65
2024/01/12 01:09:13;;;;;;;3.63;2.10;;;;;;;17.38;27.89;103295.53;16119992;19;129527;-64
2024/01/12 01:14:35;;;;;;;3.08;1.90;;;;;;;17.34;27.95;103297.81;16117903;19;131549;-64
2024/01/12 01:19:57;;;;;;;2.38;1.80;;;;;;;17.32;27.93;103307.34;16113437;19;129553;-63
2024/01/12 01:25:19;;;;;;;3.33;1.80;;;;;;;17.29;28.32;103310.47;16113519;19;129618;-63
2024/01/12 01:30:40;;;;;;;2.85;2.35;;;;;;;17.26;28.19;103303.41;16111021;19;130364;-63
2024/01/12 01:36:03;;;;;;;5.05;2.40;;;;;;;17.22;27.88;103307.53;16114715;19;129485;-66
2024/01/12 01:41:25;;;;;;;4.45;2.35;;;;;;;17.18;28.16;103318.13;16114562;19;129949;-65
2024/01/12 01:46:47;;;;;;;4.65;2.30;;;;;;;17.16;28.10;103325.72;16116844;19;132353;-66
2024/01/12 01:52:09;;;;;;;2.78;2.30;;;;;;;17.14;28.11;103325.03;16116350;19;129590;-64
2024/01/12 01:57:32;;;;;;;2.95;2.08;;;;;;;17.11;28.10;103341.97;16119139;19;130299;-66
2024/01/12 02:02:55;;;;;;;2.60;2.15;;;;;;;17.09;27.99;103333.03;16115513;19;130471;-66
2024/01/12 02:08:17;;;;;;;3.88;2.20;;;;;;;17.06;28.30;103330.59;16119150;19;131794;-65
2024/01/12 02:13:39;;;;;;;4.38;2.58;;;;;;;17.03;28.31;103334.59;16118329;19;130658;-64
2024/01/12 02:19:01;;;;;;;4.25;2.38;;;;;;;17.01;28.17;103338.56;16114101;19;130203;-64
2024/01/12 02:24:23;;;;;;;3.53;2.15;;;;;;;16.99;28.10;103330.44;16113732;19;129561;-64
2024/01/12 02:29:46;;;;;;;2.60;2.00;;;;;;;16.96;28.02;103318.88;16111085;19;129803;-64
2024/01/12 02:35:08;;;;;;;5.10;2.20;;;;;;;16.91;28.31;103311.97;16112458;19;130011;-64
2024/01/12 02:40:30;;;;;;;3.65;2.40;;;;;;;16.91;28.26;103308.34;16113357;19;130641;-64
2024/01/12 02:45:52;;;;;;;3.63;2.20;;;;;;;16.89;27.98;103308.50;16113052;19;129802;-64
2024/01/12 02:51:14;;;;;;;2.83;2.40;;;;;;;16.87;27.86;103299.50;16113727;19;129675;-64
2024/01/12 02:56:36;;;;;;;4.90;2.47;;;;;;;16.84;28.14;103288.84;16111617;19;129503;-63
2024/01/12 03:01:58;;;;;;;4.35;2.20;;;;;;;16.82;28.46;103290.91;16113948;19;133855;-64
2024/01/12 03:07:20;;;;;;;2.25;1.95;;;;;;;16.80;28.08;103287.44;16113704;19;130454;-64
2024/01/12 03:12:42;;;;;;;2.70;1.98;;;;;;;16.80;28.20;103292.97;16111975;19;129399;-64
2024/01/12 03:18:04;;;;;;;2.97;2.10;;;;;;;16.84;28.12;103282.44;16107860;19;129635;-63
2024/01/12 03:23:27;;;;;;;2.35;1.73;;;;;;;16.95;28.03;103272.91;16110966;19;129838;-63
2024/01/12 03:28:49;;;;;;;3.13;1.90;;;;;;;17.06;28.00;103270.59;16109692;19;129627;-63
2024/01/12 03:34:11;;;;;;;1.70;1.52;;;;;;;17.15;28.03;103268.66;16107637;19;129636;-63
2024/01/12 03:39:33;;;;;;;2.60;1.60;;;;;;;17.23;27.86;103278.84;16112470;19;134357;-64
2024/01/12 03:44:55;;;;;;;2.95;1.67;;;;;;;17.29;27.92;103274.50;16105382;19;130656;-63
2024/01/12 03:50:17;;;;;;;3.03;2.28;;;;;;;17.29;27.94;103272.59;16127215;19;130212;-63
2024/01/12 03:55:39;;;;;;;2.53;1.98;;;;;;;17.27;27.95;103265.50;16140372;19;131456;-63
2024/01/12 04:01:05;;;;;;;3.42;2.25;;;;;;;17.25;27.91;103274.00;16134142;19;129592;-64
2024/01/12 04:06:27;;;;;;;2.42;1.80;;;;;;;17.18;27.74;103262.78;16137759;19;129622;-63
2024/01/12 04:11:49;;;;;;;3.35;2.10;;;;;;;17.14;28.14;103272.47;16139100;19;130823;-63
2024/01/12 04:17:11;;;;;;;3.08;2.17;;;;;;;17.11;28.13;103278.34;16139745;19;129695;-63
2024/01/12 04:22:33;;;;;;;3.78;2.20;;;;;;;17.08;27.82;103268.53;16139421;19;131273;-63
2024/01/12 04:27:55;;;;;;;3.78;2.25;;;;;;;17.06;27.99;103267.00;16136817;19;129550;-63
2024/01/12 04:33:17;;;;;;;3.05;2.08;;;;;;;17.04;27.87;103266.28;16140991;19;129535;-69
2024/01/12 04:38:39;;;;;;;3.17;2.00;;;;;;;17.02;27.78;103249.00;16134079;19;130628;-64
2024/01/12 04:44:01;;;;;;;2.75;1.70;;;;;;;17.00;28.04;103248.31;16136312;19;129277;-63
2024/01/12 04:49:23;;;;;;;5.43;2.60;;;;;;;16.97;27.83;103245.94;16136279;19;130590;-62
2024/01/12 04:54:45;;;;;;;4.47;1.73;;;;;;;16.95;27.98;103245.25;16137765;19;129892;-64
2024/01/12 05:00:08;;;;;;;2.42;2.15;;;;;;;16.90;27.84;103232.81;16130654;19;130168;-64
2024/01/12 05:05:30;;;;;;;3.25;2.00;;;;;;;16.87;28.20;103249.75;16118873;19;129405;-63
2024/01/12 05:10:54;;;;;;;3.80;2.10;;;;;;;16.85;28.06;103251.84;16117236;19;130089;-64
2024/01/12 05:16:16;;;;;;;3.05;2.38;;;;;;;16.83;27.72;103259.47;16119253;19;130671;-63
2024/01/12 05:21:38;;;;;;;3.90;2.50;;;;;;;16.79;27.74;103274.66;16118266;19;134141;-64
2024/01/12 05:27:00;;;;;;;4.10;2.38;;;;;;;16.77;27.84;103276.75;16116726;19;129665;-64
2024/01/12 05:32:22;;;;;;;3.75;2.50;;;;;;;16.74;27.82;103289.03;16118821;19;131617;-64
2024/01/12 05:37:44;;;;;;;5.97;2.78;;;;;;;16.72;27.98;103290.25;16115571;19;129882;-64
2024/01/12 05:43:06;;;;;;;3.53;2.30;;;;;;;16.71;28.00;103288.50;16114779;19;130003;-64
2024/01/12 05:48:28;;;;;;;3.30;2.10;;;;;;;16.68;28.08;103280.56;16118302;19;130137;-64
2024/01/12 05:53:50;;;;;;;5.60;2.78;;;;;;;16.67;28.13;103262.25;16116357;19;129733;-63
2024/01/12 05:59:12;;;;;;;4.43;2.30;;;;;;;16.67;28.22;103256.72;16114243;19;130716;-64
2024/01/12 06:04:34;;;;;;;7.32;2.50;;;;;;;16.65;27.77;103272.59;16114311;19;130357;-64
2024/01/12 06:09:56;;;;;;;4.82;2.35;;;;;;;16.61;27.80;103267.44;16114343;19;129582;-63
2024/01/12 06:15:18;;;;;;;4.70;2.20;;;;;;;16.62;28.36;103271.91;16113206;19;130571;-64
2024/01/12 06:20:40;;;;;;;4.03;2.03;;;;;;;16.63;28.03;103272.78;16115717;19;129735;-64
2024/01/12 06:26:02;;;;;;;5.90;2.33;;;;;;;16.62;28.00;103280.19;16112821;19;132166;-64
2024/01/12 06:31:32;;;;;;;6.15;2.03;;;;;;;16.60;28.36;103292.47;16115071;19;129651;-63
2024/01/12 06:36:56;;;;;;;6.65;2.10;;;;;;;16.59;28.63;103287.97;16110491;19;133375;-61
2024/01/12 06:42:18;;;;;;;5.60;2.22;;;;;;;16.57;28.44;103285.38;16112292;19;133021;-63
2024/01/12 06:47:40;;;;;;;6.18;2.17;;;;;;;16.56;28.57;103297.47;16110879;19;130075;-62
2024/01/12 06:53:08;;;;;;;5.93;2.50;;;;;;;16.55;28.69;103290.22;16111494;19;131088;-63
2024/01/12 06:58:30;;;;;;;6.63;2.30;;;;;;;16.53;28.62;103302.50;16112291;19;129361;-62
2024/01/12 07:03:52;;;;;;;5.60;2.50;;;;;;;16.53;28.80;103313.56;16106048;19;129627;-61
2024/01/12 07:09:14;;;;;;;6.60;2.53;;;;;;;16.52;28.46;103312.66;16107621;19;129620;-62
2024/01/12 07:14:36;;;;;;;5.57;2.05;;;;;;;16.50;28.84;103311.97;16105913;19;129999;-62
2024/01/12 07:19:58;;;;;;;5.82;2.38;;;;;;;16.50;28.91;103317.50;16109132;19;133644;-62
2024/01/12 07:25:20;;;;;;;7.05;2.38;;;;;;;16.48;28.71;103327.88;16106989;19;129963;-62
2024/01/12 07:30:42;;;;;;;5.20;2.53;;;;;;;16.46;28.50;103321.66;16108396;19;130745;-62
2024/01/12 07:36:04;;;;;;;6.18;2.50;;;;;;;16.45;28.73;103334.59;16105511;19;129619;-62
2024/01/12 07:41:27;;;;;;;5.85;2.30;;;;;;;16.43;28.79;103324.78;16108761;19;129780;-62
2024/01/12 07:46:49;;;;;;;5.82;2.15;;;;;;;16.42;28.73;103317.50;16107084;19;129141;-60
2024/01/12 07:52:11;;;;;;;6.72;2.20;;;;;;;16.41;29.00;103315.78;16108480;19;130213;-62
2024/01/12 07:57:39;;;;;;;9.40;2.45;;;;;;;16.40;28.85;103330.63;16108779;19;130882;-62
2024/01/12 08:03:02;;;;;;;5.47;2.00;;;;;;;16.38;28.68;103324.41;16103191;19;129992;-63
2024/01/12 08:08:24;;;;;;;6.75;2.20;;;;;;;16.36;28.50;103319.06;16105082;19;129528;-62
2024/01/12 08:13:46;;;;;;;5.88;2.10;;;;;;;16.34;28.58;103317.53;16106312;19;130678;-63
2024/01/12 08:19:08;;;;;;;5.90;2.67;;;;;;;16.32;28.49;103324.09;16105457;19;129338;-62
2024/01/12 08:24:30;;;;;;;4.82;1.92;;;;;;;16.29;28.73;103313.38;16103900;19;131413;-63
2024/01/12 08:29:52;;;;;;;5.90;1.92;;;;;;;16.27;28.87;103312.66;16106439;19;129772;-63
2024/01/12 08:35:14;;;;;;;5.32;2.10;;;;;;;16.26;28.61;103308.19;16110707;19;129596;-62
2024/01/12 08:40:36;;;;;;;5.30;1.92;;;;;;;16.25;28.90;103306.44;16129012;19;129420;-63
2024/01/12 08:45:59;;;;;;;6.90;1.80;;;;;;;16.23;28.62;103305.78;16124306;19;130818;-63
2024/01/12 08:51:21;;;;;;;4.75;1.80;;;;;;;16.23;28.79;103305.78;16118634;19;130428;-63
2024/01/12 08:56:43;;;;;;;5.10;1.70;;;;;;;16.22;28.89;103308.69;16120506;19;131799;-63
2024/01/12 09:02:06;;;;;;;7.53;2.08;;;;;;;16.20;28.62;103314.41;16117802;19;130520;-62
2024/01/12 09:07:28;;;;;;;2.97;1.50;;;;;;;16.19;28.60;103312.69;16114996;19;130146;-63
2024/01/12 09:12:50;;;;;;;5.88;1.75;;;;;;;16.17;28.80;103317.50;16118110;19;129256;-63
2024/01/12 09:18:13;;;;;;;5.57;1.52;;;;;;;16.16;28.77;103329.59;16116404;19;129744;-63
2024/01/12 09:23:35;;;;;;;3.30;1.70;;;;;;;16.14;28.99;103340.81;16115701;19;131337;-62
2024/01/12 09:28:57;;;;;;;3.30;1.40;;;;;;;16.14;29.13;103331.66;16127903;19;129703;-63
2024/01/12 09:34:19;;;;;;;6.22;1.70;;;;;;;16.13;28.80;103335.44;16128339;19;129853;-61
2024/01/12 09:39:41;;;;;;;6.03;1.90;;;;;;;16.12;28.74;103325.44;16129315;19;130588;-63
2024/01/12 09:45:04;;;;;;;3.03;1.30;;;;;;;16.12;29.00;103329.06;16135294;19;129602;-63
2024/01/12 09:50:30;;;;;;;2.75;1.33;;;;;;;16.11;29.10;103332.00;16125100;19;129375;-63
2024/01/12 09:55:52;;;;;;;4.63;1.20;;;;;;;16.11;28.94;103337.53;16134394;19;130707;-62
2024/01/12 10:01:28;;;;;;;4.85;1.60;;;;;;;16.11;28.85;103338.38;16127830;19;129381;-63
2024/01/12 10:06:50;;;;;;;3.70;1.40;;;;;;;16.17;29.12;103339.59;16125461;19;130862;-63
2024/01/12 10:12:12;;;;;;;3.38;1.48;;;;;;;16.30;28.81;103333.59;16127614;19;129582;-63
2024/01/12 10:17:34;;;;;;;2.85;1.30;;;;;;;16.43;28.95;103327.53;16117946;19;129376;-62
2024/01/12 10:22:58;;;;;;;4.53;0.95;;;;;;;16.56;28.99;103341.69;16114786;19;130013;-62
2024/01/12 10:28:19;;;;;;;3.67;1.27;;;;;;;16.66;28.68;103335.13;16113236;19;130282;-61
2024/01/12 10:33:42;;;;;;;3.45;1.10;;;;;;;16.73;28.55;103330.66;16117365;19;129900;-62
2024/01/12 10:39:09;;;;;;;3.00;1.23;;;;;;;16.76;28.88;103335.81;16113331;19;129666;-62
2024/01/12 10:44:35;;;;;;;2.45;1.30;;;;;;;16.77;28.75;103318.19;16113377;19;130979;-62
2024/01/12 10:50:06;;;;;;;2.83;1.17;;;;;;;16.76;28.66;103298.00;16112048;19;129691;-62
2024/01/12 10:55:41;;;;;;;5.20;1.30;;;;;;;16.74;28.66;103296.44;16115475;19;130975;-63
2024/01/12 11:01:04;;;;;;;3.53;1.40;;;;;;;16.69;28.62;103291.44;16110570;19;129916;-62
2024/01/12 11:06:28;;;;;;;2.50;1.02;;;;;;;16.64;28.63;103296.59;16109579;19;129933;-63
2024/01/12 11:12:29;;;;;;;2.88;1.10;;;;;;;16.59;28.58;103291.59;16113161;19;129623;-63
2024/01/12 11:17:51;;;;;;;2.88;1.08;;;;;;;16.55;28.67;103294.91;16108389;19;131873;-63
2024/01/12 11:23:13;;;;;;;2.42;1.20;;;;;;;16.53;28.57;103281.25;16108403;19;133315;-63
2024/01/12 11:28:36;;;;;;;5.13;1.08;;;;;;;16.52;29.14;103292.47;16107239;19;129692;-62
2024/01/12 11:34:02;;;;;;;4.50;1.00;;;;;;;16.50;29.05;103270.53;16107143;19;130447;-63
2024/01/12 11:39:25;;;;;;;3.08;1.00;;;;;;;16.47;28.93;103276.44;16107911;19;130188;-63
2024/01/12 11:44:47;;;;;;;1.58;0.85;;;;;;;16.45;28.87;103273.81;16108836;19;129746;-62
2024/01/12 11:50:12;;;;;;;3.40;1.00;;;;;;;16.46;29.00;103266.41;16110933;19;131566;-63
2024/01/12 11:55:37;;;;;;;2.42;0.75;;;;;;;16.43;28.81;103266.75;16109225;19;129617;-63
2024/01/12 12:01:00;;;;;;;3.20;1.13;;;;;;;16.42;28.77;103263.13;16106467;19;129388;-62
2024/01/12 12:06:22;;;;;;;3.53;1.05;;;;;;;16.40;28.70;103259.69;16105408;19;129719;-63
2024/01/12 12:11:45;;;;;;;2.95;0.95;;;;;;;16.39;28.78;103257.06;16116644;19;129817;-63
2024/01/12 12:17:08;;;;;;;3.75;1.13;;;;;;;16.37;29.04;103264.69;16123137;19;129787;-63
2024/01/12 12:22:30;;;;;;;3.55;1.00;;;;;;;16.35;29.17;103259.31;16124875;19;129514;-63
2024/01/12 12:27:52;;;;;;;1.92;0.98;;;;;;;16.32;28.63;103257.78;16122866;19;129719;-63
2024/01/12 12:33:14;;;;;;;2.58;1.10;;;;;;;16.30;28.94;103248.81;16123234;19;130309;-63
2024/01/12 12:38:37;;;;;;;3.00;0.90;;;;;;;16.27;29.00;103249.13;16121781;19;130398;-63
2024/01/12 12:43:59;;;;;;;1.92;0.90;;;;;;;16.26;29.03;103246.56;16123853;19;130331;-63
2024/01/12 12:49:21;;;;;;;2.65;1.00;;;;;;;16.25;28.69;103236.56;16122028;19;129944;-62
2024/01/12 12:54:44;;;;;;;3.28;1.00;;;;;;;16.23;28.77;103220.16;16123855;19;130642;-63
2024/01/12 13:00:09;;;;;;;3.83;1.10;;;;;;;16.21;29.10;103213.94;16118663;19;129558;-63
2024/01/12 13:05:36;;;;;;;4.00;1.20;;;;;;;16.19;29.13;103204.97;16118547;19;129715;-63
2024/01/12 13:10:58;;;;;;;3.20;1.17;;;;;;;16.16;29.09;103191.50;16117942;19;132814;-63
2024/01/12 13:16:20;;;;;;;1.63;0.90;;;;;;;16.14;28.96;103190.81;16117796;19;130924;-62
2024/01/12 13:21:43;;;;;;;2.53;0.93;;;;;;;16.12;28.87;103179.94;16114183;19;129250;-63
2024/01/12 13:27:05;;;;;;;2.85;1.20;;;;;;;16.12;29.16;103187.38;16114025;19;129339;-63
2024/01/12 13:32:28;;;;;;;2.20;1.00;;;;;;;16.09;29.13;103184.97;16111624;19;129743;-63
2024/01/12 13:37:50;;;;;;;2.08;1.08;;;;;;;16.07;28.84;103170.47;16113379;19;130701;-63
2024/01/12 13:43:12;;;;;;;2.38;1.00;;;;;;;16.07;29.24;103184.25;16114638;19;129487;-62
2024/01/12 13:48:37;;;;;;;2.17;0.93;;;;;;;16.05;29.18;103172.53;16116570;19;130094;-65
2024/01/12 13:54:03;;;;;;;2.58;1.10;;;;;;;16.04;29.30;103179.09;16117003;19;131589;-63
2024/01/12 13:59:25;;;;;;;;;;;;;;;16.01;29.25;103172.03;16116495;19;129592;-62
2024/01/12 14:04:48;;;;;;;2.35;1.10;;;;;;;16.00;28.93;103167.53;16112481;19;129345;-62
2024/01/12 14:10:26;;;;;;;2.97;0.90;;;;;;;16.01;29.12;103172.03;16114009;19;130275;-63
2024/01/12 14:15:48;;;;;;;3.33;1.00;;;;;;;16.06;29.16;103166.81;16118475;19;131554;-62
2024/01/12 14:21:10;;;;;;;1.92;0.88;;;;;;;16.19;29.14;103155.25;16114130;19;129667;-64
2024/01/12 14:26:32;;;;;;;2.90;1.08;;;;;;;16.35;29.33;103156.25;16113624;19;131090;-63
2024/01/12 14:31:55;;;;;;;2.92;0.90;;;;;;;16.48;29.03;103131.72;16111506;19;130335;-63
2024/01/12 14:37:17;;;;;;;1.67;0.88;;;;;;;16.57;29.27;103138.06;16113142;19;129718;-63
2024/01/12 14:42:39;;;;;;;2.42;0.98;;;;;;;16.63;29.11;103121.63;16110938;19;130515;-63
2024/01/12 14:48:02;;;;;;;1.67;1.00;;;;;;;16.66;29.02;103122.31;16111072;19;129255;-63
2024/01/12 14:53:36;;;;;;;2.13;0.90;;;;;;;16.67;28.69;103121.28;16111717;19;130875;-63
2024/01/12 14:59:01;;;;;;;2.28;1.05;;;;;;;16.64;29.02;103122.50;16110336;19;130398;-63
2024/01/12 15:04:23;;;;;;;2.45;1.00;;;;;;;16.60;29.10;103123.88;16111018;19;129612;-63
2024/01/12 15:09:45;;;;;;;1.77;0.95;;;;;;;16.56;28.86;103136.31;16106852;19;129791;-63
2024/01/12 15:15:08;;;;;;;2.22;1.00;;;;;;;16.50;29.08;103126.84;16107465;19;129597;-63
2024/01/12 15:20:31;;;;;;;3.33;1.23;;;;;;;16.45;29.15;103130.16;16108121;19;130949;-63
2024/01/12 15:25:56;;;;;;;3.38;1.08;;;;;;;16.41;29.02;103126.03;16110069;19;134861;-63
2024/01/12 15:31:18;;;;;;;2.50;1.00;;;;;;;16.39;29.27;103127.22;16106785;19;133326;-63
2024/01/12 15:36:41;;;;;;;2.85;1.00;;;;;;;16.37;28.83;103134.84;16106099;19;129663;-63
2024/01/12 15:42:03;;;;;;;2.45;1.02;;;;;;;16.37;29.00;103140.38;16109978;19;131250;-63
2024/01/12 15:47:25;;;;;;;3.28;0.98;;;;;;;16.34;29.27;103147.09;16105661;19;129432;-63
2024/01/12 15:52:47;;;;;;;2.47;0.90;;;;;;;16.32;29.32;103139.00;16108319;19;129455;-63
2024/01/12 15:58:09;;;;;;;1.80;0.80;;;;;;;16.42;29.33;103132.41;16106896;19;130215;-63
2024/01/12 16:03:31;;;;;;;2.53;0.90;;;;;;;16.67;29.13;103135.13;16105762;19;129418;-63
2024/01/12 16:08:53;;;;;;;2.13;1.00;;;;;;;17.01;28.71;103131.16;16105262;19;129806;-63
2024/01/12 16:14:15;;;;;;;2.63;1.17;;;;;;;17.41;28.59;103126.41;16106277;19;130600;-63
2024/01/12 16:19:41;;;;;;;3.40;1.10;;;;;;;17.84;28.17;103128.69;16106988;19;131353;-66
2024/01/12 16:25:04;;;;;;;2.78;1.33;;;;;;;18.18;27.78;103120.91;16105182;19;129317;-63
2024/01/12 16:30:26;;;;;;;3.35;1.30;;;;;;;18.57;27.76;103123.41;16104637;19;129805;-63
2024/01/12 16:35:48;;;;;;;4.78;1.48;;;;;;;18.90;27.40;103117.44;16102997;19;130933;-63
2024/01/12 16:41:14;;;;;;;3.25;1.52;;;;;;;19.06;27.20;103121.91;16104560;19;131837;-64
2024/01/12 16:46:36;;;;;;;2.78;1.20;;;;;;;19.08;26.78;103108.69;16103950;19;130378;-63
2024/01/12 16:51:58;;;;;;;4.13;1.67;;;;;;;19.02;27.02;103119.69;16104568;19;134265;-63
2024/01/12 16:57:20;;;;;;;3.45;1.25;;;;;;;;;;16110512;19;130747;-63
2024/01/12 17:02:42;;;;;;;2.90;1.30;;;;;;;18.77;27.08;103109.81;16117524;19;129547;-63
2024/01/12 17:08:04;;;;;;;5.85;1.50;;;;;;;18.64;27.03;103111.56;16116118;19;130749;-63
2024/01/12 17:13:27;;;;;;;2.63;1.50;;;;;;;18.50;27.49;103111.41;16112436;19;131940;-63
2024/01/12 17:18:49;;;;;;;14.07;2.70;;;;;;;18.44;27.64;103107.47;16109953;19;131620;-62
2024/01/12 17:24:13;;;;;;;11.48;2.63;;;;;;;18.50;27.44;103099.44;16118589;19;130151;-62
2024/01/12 17:29:35;;;;;;;16.92;2.95;;;;;;;18.68;27.70;103097.13;16115150;19;131046;-62
2024/01/12 17:34:57;;;;;;;9.02;2.83;;;;;;;18.92;27.42;103100.63;16112456;19;130136;-66
2024/01/12 17:40:19;;;;;;;11.10;3.17;;;;;;;19.19;27.29;103103.69;16110960;19;130726;-66
2024/01/12 17:45:41;;;;;;;16.08;3.25;;;;;;;19.45;27.41;103103.13;16108601;19;130743;-62
2024/01/12 17:51:03;;;;;;;12.07;3.22;;;;;;;19.71;27.40;103095.22;16114423;19;129649;-61
2024/01/12 17:56:27;;;;;;;22.65;5.07;;;;;;;19.88;27.06;103093.88;16113568;19;131237;-63
2024/01/12 18:01:49;;;;;;;20.20;8.07;;;;;;;20.05;27.10;103085.28;16106980;19;129408;-63
2024/01/12 18:07:10;;;;;;;22.50;7.63;;;;;;;20.22;26.58;103083.03;16108355;19;130454;-64
2024/01/12 18:12:32;;;;;;;22.83;9.05;;;;;;;20.32;26.76;103077.06;16111510;19;130931;-64
2024/01/12 18:17:54;;;;;;;25.48;10.18;;;;;;;20.34;26.01;103077.72;16108805;19;131923;-65
2024/01/12 18:23:16;;;;;;;27.73;11.60;;;;;;;20.26;26.02;103076.84;16110250;19;131276;-64
2024/01/12 18:28:38;;;;;;;26.45;11.25;;;;;;;20.14;25.96;103078.47;16111988;19;132913;-66
2024/01/12 18:34:00;;;;;;;33.33;12.70;;;;;;;20.02;26.31;103092.06;16108680;19;131083;-64
2024/01/12 18:39:22;;;;;;;38.03;16.42;;;;;;;19.91;26.65;103095.38;16107636;19;130080;-66
2024/01/12 18:44:44;;;;;;;37.85;18.00;;;;;;;19.79;26.69;103097.88;16109199;19;129751;-65
2024/01/12 18:50:07;;;;;;;35.65;19.30;;;;;;;19.79;27.13;103092.31;16106169;19;130062;-64
2024/01/12 18:55:30;;;;;;;34.03;18.85;;;;;;;19.95;27.10;103091.16;16111032;19;130463;-65
2024/01/12 19:00:52;;;;;;;33.28;17.58;;;;;;;20.19;26.89;103091.75;16107196;19;129527;-66
2024/01/12 19:06:14;;;;;;;39.08;18.92;;;;;;;20.36;26.74;103090.38;16107910;19;130869;-66
2024/01/12 19:11:36;;;;;;;33.80;17.88;;;;;;;20.44;26.47;103100.44;16109044;19;131261;-66
2024/01/12 19:16:58;;;;;;;37.13;17.67;;;;;;;20.41;26.78;103089.75;16105454;19;129874;-67
2024/01/12 19:22:20;;;;;;;43.10;17.73;;;;;;;20.33;26.72;103085.22;16106181;19;129366;-68
2024/01/12 19:27:42;;;;;;;35.97;17.52;;;;;;;20.20;27.13;103083.19;16105064;19;129986;-69
2024/01/12 19:33:04;;;;;;;31.85;15.88;;;;;;;20.08;27.47;103077.38;16106171;19;129488;-68
2024/01/12 19:38:26;;;;;;;33.45;15.35;;;;;;;20.07;27.40;103063.66;16104664;19;129995;-67
2024/01/12 19:43:48;;;;;;;47.97;15.38;;;;;;;20.10;27.89;103066.03;16107819;19;130391;-66
2024/01/12 19:49:10;;;;;;;31.90;13.35;;;;;;;20.14;27.67;103050.69;16113364;19;130172;-67
2024/01/12 19:54:32;;;;;;;34.50;12.38;;;;;;;20.20;27.52;103044.28;16107408;19;130146;-66
2024/01/12 19:59:54;;;;;;;33.00;11.15;;;;;;;20.24;27.64;103045.63;16107938;19;130232;-68
2024/01/12 20:05:16;;;;;;;29.77;11.52;;;;;;;20.29;27.74;103037.53;16101939;19;129831;-67
2024/01/12 20:10:38;;;;;;;30.73;11.13;;;;;;;20.34;27.55;103038.81;16107551;19;132741;-63
2024/01/12 20:16:01;;;;;;;31.55;9.60;;;;;;;20.33;27.32;103034.31;16101421;19;130642;-63
2024/01/12 20:21:24;;;;;;;32.67;9.48;;;;;;;20.31;27.62;103028.13;16100165;19;129871;-63
2024/01/12 20:26:46;;;;;;;29.95;8.65;;;;;;;20.35;27.40;103033.06;16101247;19;129846;-63
2024/01/12 20:32:08;;;;;;;32.42;8.85;;;;;;;20.40;27.48;103024.09;16105643;19;130499;-63
2024/01/12 20:37:32;;;;;;;27.50;6.50;;;;;;;20.50;27.10;103027.34;16119107;19;130735;-63
2024/01/12 20:42:54;;;;;;;16.08;6.68;;;;;;;20.70;27.26;103020.97;16123945;19;130238;-64
2024/01/12 20:48:17;;;;;;;24.38;5.78;;;;;;;20.86;27.17;103015.06;16120277;19;131226;-64
2024/01/12 20:53:39;;;;;;;15.18;5.90;;;;;;;20.96;26.70;103019.34;16123681;19;129456;-63
2024/01/12 20:59:01;;;;;;;20.20;6.22;;;;;;;20.98;26.93;103017.22;16120634;19;130922;-63
2024/01/12 21:04:23;;;;;;;16.20;4.90;;;;;;;20.96;26.58;103017.44;16117445;19;129576;-64
2024/01/12 21:09:45;;;;;;;14.90;4.88;;;;;;;20.93;27.10;103014.22;16117894;19;130727;-64
2024/01/12 21:15:08;;;;;;;16.45;4.47;;;;;;;20.85;27.11;103012.50;16119021;19;130182;-64
2024/01/12 21:20:30;;;;;;;13.15;4.22;;;;;;;20.74;26.98;103005.59;16118579;19;129495;-64
2024/01/12 21:25:52;;;;;;;14.15;4.40;;;;;;;20.60;27.25;103011.09;16117181;19;130500;-64
2024/01/12 21:31:14;;;;;;;14.05;4.53;;;;;;;20.45;26.99;102997.38;16115518;19;130518;-66
2024/01/12 21:36:36;;;;;;;13.88;4.20;;;;;;;20.32;27.07;102993.69;16115201;19;133676;-68
2024/01/12 21:41:58;;;;;;;14.20;4.55;;;;;;;20.16;27.22;102987.44;16107350;19;130024;-65
2024/01/12 21:47:20;;;;;;;11.75;3.97;;;;;;;20.03;27.57;102990.16;16109494;19;130329;-65
2024/01/12 21:52:42;;;;;;;10.38;4.05;;;;;;;19.88;27.44;102977.19;16113212;19;129605;-67
2024/01/12 21:58:06;;;;;;;11.32;3.95;;;;;;;19.73;27.76;102976.47;16117966;19;129528;-67
2024/01/12 22:03:28;;;;;;;11.80;4.50;;;;;;;19.55;28.04;102968.66;16114611;19;131557;-64
2024/01/12 22:08:50;;;;;;;13.63;4.10;;;;;;;19.38;28.14;102960.66;16113800;19;130113;-64
2024/01/12 22:14:12;;;;;;;11.05;3.50;;;;;;;19.23;27.94;102960.72;16113333;19;133956;-63
2024/01/12 22:19:34;;;;;;;8.48;3.55;;;;;;;19.12;28.00;102953.78;16115714;19;131013;-63
2024/01/12 22:24:56;;;;;;;8.05;3.17;;;;;;;18.99;28.05;102954.53;16110832;19;129801;-64
2024/01/12 22:30:19;;;;;;;8.43;3.30;;;;;;;18.87;28.42;102950.56;16113576;19;129751;-63
2024/01/12 22:35:42;;;;;;;10.13;3.78;;;;;;;18.77;28.31;102940.66;16112305;19;130316;-64
2024/01/12 22:41:04;;;;;;;10.88;3.28;;;;;;;18.67;28.86;102928.19;16109078;19;130808;-64
2024/01/12 22:46:26;;;;;;;8.68;3.05;;;;;;;18.57;28.81;102929.38;16111787;19;129603;-64
2024/01/12 22:51:48;;;;;;;7.95;3.22;;;;;;;18.48;29.01;102930.56;16111114;19;129982;-63
2024/01/12 22:57:10;;;;;;;5.75;2.70;;;;;;;18.41;28.60;102930.47;16112748;19;130900;-63
2024/01/12 23:02:33;;;;;;;9.93;3.13;;;;;;;18.34;29.03;102923.97;16110076;19;129970;-63
2024/01/12 23:07:57;;;;;;;9.82;3.15;;;;;;;18.26;28.70;102921.31;16106333;19;131250;-64
2024/01/12 23:13:19;;;;;;;7.68;3.10;;;;;;;18.19;29.23;102909.31;16112180;19;131061;-63
2024/01/12 23:18:42;;;;;;;6.18;2.53;;;;;;;18.13;29.14;102914.56;16106124;19;130562;-63
2024/01/12 23:24:05;;;;;;;7.50;2.83;;;;;;;18.07;28.92;102906.16;16103633;19;131932;-63
2024/01/12 23:29:27;;;;;;;5.53;2.40;;;;;;;18.02;29.41;102904.00;16103788;19;132247;-64
2024/01/12 23:34:56;;;;;;;5.07;2.50;;;;;;;17.96;29.15;102894.53;16107796;19;130068;-64
2024/01/12 23:40:18;;;;;;;6.85;2.88;;;;;;;17.90;29.33;102881.50;16105014;19;130344;-63
2024/01/12 23:45:40;;;;;;;4.45;2.45;;;;;;;17.84;29.32;102873.94;16102050;19;129947;-64
2024/01/12 23:51:02;;;;;;;7.50;2.83;;;;;;;17.80;29.53;102870.72;16103776;19;129524;-63
2024/01/12 23:56:24;;;;;;;5.53;2.50;;;;;;;17.76;29.51;102874.91;16108551;19;131654;-64
